sensor_id;sensor_type;location;lat;lon;timestamp;P1;durP1;ratioP1;P2;durP2;ratioP2
60464;SDS011;46314;52.392;9.758;2023-03-14T00:00:02;4.68;;;1.90;;
60464;SDS011;46314;52.392;9.758;2023-03-14T00:02:31;6.10;;;1.85;;
60464;SDS011;46314;52.392;9.758;2023-03-14T00:04:58;4.65;;;1.85;;
60464;SDS011;46314;52.392;9.758;2023-03-14T00:07:24;2.90;;;1.67;;
60464;SDS011;46314;52.392;9.758;2023-03-14T00:09:50;6.53;;;2.28;;
60464;SDS011;46314;52.392;9.758;2023-03-14T00:12:18;5.00;;;1.77;;
60464;SDS011;46314;52.392;9.758;2023-03-14T00:14:44;3.72;;;2.17;;
60464;SDS011;46314;52.392;9.758;2023-03-14T00:17:11;5.25;;;2.03;;
60464;SDS011;46314;52.392;9.758;2023-03-14T00:19:37;4.32;;;2.10;;
60464;SDS011;46314;52.392;9.758;2023-03-14T00:22:04;3.45;;;1.70;;
60464;SDS011;46314;52.392;9.758;2023-03-14T00:24:30;4.00;;;1.80;;
60464;SDS011;46314;52.392;9.758;2023-03-14T00:26:57;4.75;;;1.70;;
60464;SDS011;46314;52.392;9.758;2023-03-14T00:29:25;7.53;;;2.08;;
60464;SDS011;46314;52.392;9.758;2023-03-14T00:31:51;3.15;;;1.55;;
60464;SDS011;46314;52.392;9.758;2023-03-14T00:34:17;4.28;;;1.67;;
60464;SDS011;46314;52.392;9.758;2023-03-14T00:36:44;6.57;;;2.10;;
60464;SDS011;46314;52.392;9.758;2023-03-14T00:39:11;2.85;;;1.90;;
60464;SDS011;46314;52.392;9.758;2023-03-14T00:41:37;2.60;;;1.60;;
60464;SDS011;46314;52.392;9.758;2023-03-14T00:44:03;9.50;;;2.67;;
60464;SDS011;46314;52.392;9.758;2023-03-14T00:46:31;3.25;;;2.05;;
60464;SDS011;46314;52.392;9.758;2023-03-14T00:48:58;3.28;;;1.80;;
60464;SDS011;46314;52.392;9.758;2023-03-14T00:51:24;4.05;;;1.88;;
60464;SDS011;46314;52.392;9.758;2023-03-14T00:53:50;4.00;;;1.85;;
60464;SDS011;46314;52.392;9.758;2023-03-14T00:56:17;4.80;;;1.73;;
60464;SDS011;46314;52.392;9.758;2023-03-14T00:58:43;4.38;;;1.50;;
60464;SDS011;46314;52.392;9.758;2023-03-14T01:01:10;5.55;;;2.08;;
60464;SDS011;46314;52.392;9.758;2023-03-14T01:03:40;3.78;;;1.90;;
60464;SDS011;46314;52.392;9.758;2023-03-14T01:06:07;2.85;;;1.65;;
60464;SDS011;46314;52.392;9.758;2023-03-14T01:08:35;4.65;;;1.85;;
60464;SDS011;46314;52.392;9.758;2023-03-14T01:11:04;2.97;;;1.63;;
60464;SDS011;46314;52.392;9.758;2023-03-14T01:13:31;4.22;;;2.00;;
60464;SDS011;46314;52.392;9.758;2023-03-14T01:16:00;2.60;;;1.67;;
60464;SDS011;46314;52.392;9.758;2023-03-14T01:18:28;3.28;;;1.70;;
60464;SDS011;46314;52.392;9.758;2023-03-14T01:20:55;3.67;;;1.73;;
60464;SDS011;46314;52.392;9.758;2023-03-14T01:23:22;4.05;;;1.80;;
60464;SDS011;46314;52.392;9.758;2023-03-14T01:25:49;4.72;;;1.92;;
60464;SDS011;46314;52.392;9.758;2023-03-14T01:28:15;3.88;;;1.40;;
60464;SDS011;46314;52.392;9.758;2023-03-14T01:30:42;4.95;;;2.00;;
60464;SDS011;46314;52.392;9.758;2023-03-14T01:33:08;6.47;;;1.73;;
60464;SDS011;46314;52.392;9.758;2023-03-14T01:35:35;3.55;;;1.70;;
60464;SDS011;46314;52.392;9.758;2023-03-14T01:38:02;4.82;;;1.83;;
60464;SDS011;46314;52.392;9.758;2023-03-14T01:40:29;3.08;;;1.70;;
60464;SDS011;46314;52.392;9.758;2023-03-14T01:42:55;4.18;;;1.83;;
60464;SDS011;46314;52.392;9.758;2023-03-14T01:48:28;4.95;;;1.92;;
60464;SDS011;46314;52.392;9.758;2023-03-14T01:50:58;5.38;;;2.15;;
60464;SDS011;46314;52.392;9.758;2023-03-14T01:53:28;3.78;;;1.77;;
60464;SDS011;46314;52.392;9.758;2023-03-14T01:55:55;5.22;;;2.08;;
60464;SDS011;46314;52.392;9.758;2023-03-14T01:58:23;2.65;;;1.70;;
60464;SDS011;46314;52.392;9.758;2023-03-14T02:00:51;4.18;;;1.83;;
60464;SDS011;46314;52.392;9.758;2023-03-14T02:03:18;5.47;;;1.67;;
60464;SDS011;46314;52.392;9.758;2023-03-14T02:05:48;2.85;;;1.70;;
60464;SDS011;46314;52.392;9.758;2023-03-14T02:08:16;3.85;;;1.58;;
60464;SDS011;46314;52.392;9.758;2023-03-14T02:10:46;4.30;;;1.80;;
60464;SDS011;46314;52.392;9.758;2023-03-14T02:13:15;2.20;;;1.58;;
60464;SDS011;46314;52.392;9.758;2023-03-14T02:15:43;3.53;;;1.75;;
60464;SDS011;46314;52.392;9.758;2023-03-14T02:18:09;8.02;;;1.55;;
60464;SDS011;46314;52.392;9.758;2023-03-14T02:20:38;6.38;;;2.15;;
60464;SDS011;46314;52.392;9.758;2023-03-14T02:23:11;2.47;;;1.48;;
60464;SDS011;46314;52.392;9.758;2023-03-14T02:25:42;3.53;;;1.40;;
60464;SDS011;46314;52.392;9.758;2023-03-14T02:28:15;3.47;;;1.67;;
60464;SDS011;46314;52.392;9.758;2023-03-14T02:30:42;3.33;;;1.40;;
60464;SDS011;46314;52.392;9.758;2023-03-14T02:33:10;2.90;;;1.77;;
60464;SDS011;46314;52.392;9.758;2023-03-14T02:35:40;5.10;;;2.25;;
60464;SDS011;46314;52.392;9.758;2023-03-14T02:38:14;2.60;;;1.50;;
60464;SDS011;46314;52.392;9.758;2023-03-14T02:40:45;2.25;;;1.48;;
60464;SDS011;46314;52.392;9.758;2023-03-14T02:43:12;5.57;;;1.70;;
60464;SDS011;46314;52.392;9.758;2023-03-14T02:45:42;2.92;;;1.35;;
60464;SDS011;46314;52.392;9.758;2023-03-14T02:48:11;4.93;;;1.92;;
60464;SDS011;46314;52.392;9.758;2023-03-14T02:50:41;4.53;;;1.83;;
60464;SDS011;46314;52.392;9.758;2023-03-14T02:53:09;5.80;;;2.10;;
60464;SDS011;46314;52.392;9.758;2023-03-14T02:55:38;3.80;;;1.52;;
60464;SDS011;46314;52.392;9.758;2023-03-14T02:58:05;3.85;;;1.83;;
60464;SDS011;46314;52.392;9.758;2023-03-14T03:00:31;4.95;;;2.13;;
60464;SDS011;46314;52.392;9.758;2023-03-14T03:02:59;5.50;;;1.77;;
60464;SDS011;46314;52.392;9.758;2023-03-14T03:05:26;3.47;;;2.15;;
60464;SDS011;46314;52.392;9.758;2023-03-14T03:07:52;3.47;;;1.30;;
60464;SDS011;46314;52.392;9.758;2023-03-14T03:10:18;5.72;;;1.77;;
60464;SDS011;46314;52.392;9.758;2023-03-14T03:12:45;5.85;;;1.42;;
60464;SDS011;46314;52.392;9.758;2023-03-14T03:15:12;3.00;;;1.50;;
60464;SDS011;46314;52.392;9.758;2023-03-14T03:17:38;4.40;;;1.63;;
60464;SDS011;46314;52.392;9.758;2023-03-14T03:20:08;3.10;;;1.40;;
60464;SDS011;46314;52.392;9.758;2023-03-14T03:22:35;4.72;;;1.65;;
60464;SDS011;46314;52.392;9.758;2023-03-14T03:25:02;4.10;;;1.50;;
60464;SDS011;46314;52.392;9.758;2023-03-14T03:27:29;5.82;;;1.90;;
60464;SDS011;46314;52.392;9.758;2023-03-14T03:29:56;8.68;;;2.17;;
60464;SDS011;46314;52.392;9.758;2023-03-14T03:32:22;6.78;;;1.85;;
60464;SDS011;46314;52.392;9.758;2023-03-14T03:34:49;4.63;;;1.67;;
60464;SDS011;46314;52.392;9.758;2023-03-14T03:37:17;3.97;;;1.27;;
60464;SDS011;46314;52.392;9.758;2023-03-14T03:39:43;5.07;;;2.20;;
60464;SDS011;46314;52.392;9.758;2023-03-14T03:42:10;6.07;;;2.10;;
60464;SDS011;46314;52.392;9.758;2023-03-14T03:44:36;4.45;;;1.90;;
60464;SDS011;46314;52.392;9.758;2023-03-14T03:47:03;4.55;;;1.60;;
60464;SDS011;46314;52.392;9.758;2023-03-14T03:49:29;4.47;;;1.65;;
60464;SDS011;46314;52.392;9.758;2023-03-14T03:51:56;6.93;;;2.08;;
60464;SDS011;46314;52.392;9.758;2023-03-14T03:54:24;4.05;;;1.60;;
60464;SDS011;46314;52.392;9.758;2023-03-14T03:56:52;5.05;;;1.73;;
60464;SDS011;46314;52.392;9.758;2023-03-14T03:59:18;8.10;;;1.92;;
60464;SDS011;46314;52.392;9.758;2023-03-14T04:01:44;3.92;;;1.67;;
60464;SDS011;46314;52.392;9.758;2023-03-14T04:04:11;3.85;;;1.50;;
60464;SDS011;46314;52.392;9.758;2023-03-14T04:06:38;3.00;;;1.85;;
60464;SDS011;46314;52.392;9.758;2023-03-14T04:09:04;2.95;;;1.80;;
60464;SDS011;46314;52.392;9.758;2023-03-14T04:11:32;5.47;;;1.63;;
60464;SDS011;46314;52.392;9.758;2023-03-14T04:13:58;5.60;;;2.05;;
60464;SDS011;46314;52.392;9.758;2023-03-14T04:16:25;2.35;;;1.23;;
60464;SDS011;46314;52.392;9.758;2023-03-14T04:18:52;2.75;;;1.05;;
60464;SDS011;46314;52.392;9.758;2023-03-14T04:21:19;2.95;;;1.25;;
60464;SDS011;46314;52.392;9.758;2023-03-14T04:23:45;1.92;;;0.95;;
60464;SDS011;46314;52.392;9.758;2023-03-14T04:26:11;1.67;;;0.85;;
60464;SDS011;46314;52.392;9.758;2023-03-14T04:28:39;2.70;;;1.00;;
60464;SDS011;46314;52.392;9.758;2023-03-14T04:31:06;1.38;;;0.70;;
60464;SDS011;46314;52.392;9.758;2023-03-14T04:33:33;1.95;;;0.82;;
60464;SDS011;46314;52.392;9.758;2023-03-14T04:36:00;2.67;;;1.00;;
60464;SDS011;46314;52.392;9.758;2023-03-14T04:38:26;2.75;;;1.20;;
60464;SDS011;46314;52.392;9.758;2023-03-14T04:40:52;5.15;;;1.08;;
60464;SDS011;46314;52.392;9.758;2023-03-14T04:43:19;0.60;;;0.57;;
60464;SDS011;46314;52.392;9.758;2023-03-14T04:45:46;1.92;;;1.30;;
60464;SDS011;46314;52.392;9.758;2023-03-14T04:48:13;1.75;;;0.88;;
60464;SDS011;46314;52.392;9.758;2023-03-14T04:50:39;1.52;;;0.68;;
60464;SDS011;46314;52.392;9.758;2023-03-14T04:53:06;1.70;;;0.73;;
60464;SDS011;46314;52.392;9.758;2023-03-14T04:55:32;1.65;;;0.65;;
60464;SDS011;46314;52.392;9.758;2023-03-14T04:57:59;5.40;;;0.82;;
60464;SDS011;46314;52.392;9.758;2023-03-14T05:00:25;4.15;;;1.30;;
60464;SDS011;46314;52.392;9.758;2023-03-14T05:02:53;2.72;;;0.60;;
60464;SDS011;46314;52.392;9.758;2023-03-14T05:05:20;1.55;;;0.68;;
60464;SDS011;46314;52.392;9.758;2023-03-14T05:07:46;2.17;;;0.73;;
60464;SDS011;46314;52.392;9.758;2023-03-14T05:10:13;3.83;;;0.93;;
60464;SDS011;46314;52.392;9.758;2023-03-14T05:12:39;2.85;;;0.93;;
60464;SDS011;46314;52.392;9.758;2023-03-14T05:15:06;1.23;;;0.98;;
60464;SDS011;46314;52.392;9.758;2023-03-14T05:17:34;2.58;;;0.88;;
60464;SDS011;46314;52.392;9.758;2023-03-14T05:20:02;2.08;;;0.63;;
60464;SDS011;46314;52.392;9.758;2023-03-14T05:22:29;1.63;;;0.63;;
60464;SDS011;46314;52.392;9.758;2023-03-14T05:24:55;1.65;;;1.00;;
60464;SDS011;46314;52.392;9.758;2023-03-14T05:27:22;3.05;;;0.73;;
60464;SDS011;46314;52.392;9.758;2023-03-14T05:29:48;2.63;;;0.88;;
60464;SDS011;46314;52.392;9.758;2023-03-14T05:32:15;2.03;;;0.80;;
60464;SDS011;46314;52.392;9.758;2023-03-14T05:34:41;3.03;;;1.00;;
60464;SDS011;46314;52.392;9.758;2023-03-14T05:37:09;1.52;;;0.80;;
60464;SDS011;46314;52.392;9.758;2023-03-14T05:39:35;2.33;;;1.20;;
60464;SDS011;46314;52.392;9.758;2023-03-14T05:42:02;3.17;;;0.90;;
60464;SDS011;46314;52.392;9.758;2023-03-14T05:44:28;4.05;;;1.38;;
60464;SDS011;46314;52.392;9.758;2023-03-14T05:46:54;3.60;;;1.05;;
60464;SDS011;46314;52.392;9.758;2023-03-14T05:49:21;5.63;;;1.25;;
60464;SDS011;46314;52.392;9.758;2023-03-14T05:51:48;4.45;;;1.60;;
60464;SDS011;46314;52.392;9.758;2023-03-14T05:54:15;4.38;;;1.67;;
60464;SDS011;46314;52.392;9.758;2023-03-14T05:56:42;3.22;;;1.17;;
60464;SDS011;46314;52.392;9.758;2023-03-14T05:59:08;5.85;;;1.33;;
60464;SDS011;46314;52.392;9.758;2023-03-14T06:01:35;4.63;;;1.50;;
60464;SDS011;46314;52.392;9.758;2023-03-14T06:04:01;4.60;;;1.50;;
60464;SDS011;46314;52.392;9.758;2023-03-14T06:06:28;6.25;;;1.65;;
60464;SDS011;46314;52.392;9.758;2023-03-14T06:08:54;4.32;;;1.63;;
60464;SDS011;46314;52.392;9.758;2023-03-14T06:11:22;7.10;;;1.40;;
60464;SDS011;46314;52.392;9.758;2023-03-14T06:13:48;4.65;;;1.65;;
60464;SDS011;46314;52.392;9.758;2023-03-14T06:16:15;6.30;;;2.15;;
60464;SDS011;46314;52.392;9.758;2023-03-14T06:18:41;6.88;;;1.63;;
60464;SDS011;46314;52.392;9.758;2023-03-14T06:21:07;6.28;;;1.98;;
60464;SDS011;46314;52.392;9.758;2023-03-14T06:23:34;2.95;;;1.33;;
60464;SDS011;46314;52.392;9.758;2023-03-14T06:26:00;9.68;;;1.80;;
60464;SDS011;46314;52.392;9.758;2023-03-14T06:28:28;3.75;;;1.40;;
60464;SDS011;46314;52.392;9.758;2023-03-14T06:30:54;5.60;;;1.80;;
60464;SDS011;46314;52.392;9.758;2023-03-14T06:33:21;4.68;;;1.60;;
60464;SDS011;46314;52.392;9.758;2023-03-14T06:35:47;4.13;;;1.70;;
60464;SDS011;46314;52.392;9.758;2023-03-14T06:38:14;4.30;;;1.63;;
60464;SDS011;46314;52.392;9.758;2023-03-14T06:40:40;4.53;;;1.60;;
60464;SDS011;46314;52.392;9.758;2023-03-14T06:43:06;3.92;;;1.30;;
60464;SDS011;46314;52.392;9.758;2023-03-14T06:45:34;3.33;;;1.25;;
60464;SDS011;46314;52.392;9.758;2023-03-14T06:48:01;6.13;;;1.80;;
60464;SDS011;46314;52.392;9.758;2023-03-14T06:50:27;3.63;;;1.50;;
60464;SDS011;46314;52.392;9.758;2023-03-14T06:52:54;4.13;;;1.55;;
60464;SDS011;46314;52.392;9.758;2023-03-14T06:55:20;7.93;;;1.85;;
60464;SDS011;46314;52.392;9.758;2023-03-14T06:57:48;5.05;;;1.35;;
60464;SDS011;46314;52.392;9.758;2023-03-14T07:00:15;5.32;;;1.55;;
60464;SDS011;46314;52.392;9.758;2023-03-14T07:02:44;5.53;;;1.20;;
60464;SDS011;46314;52.392;9.758;2023-03-14T07:05:10;2.97;;;0.93;;
60464;SDS011;46314;52.392;9.758;2023-03-14T07:07:37;3.25;;;1.20;;
60464;SDS011;46314;52.392;9.758;2023-03-14T07:10:03;3.33;;;1.33;;
60464;SDS011;46314;52.392;9.758;2023-03-14T07:12:30;2.60;;;1.00;;
60464;SDS011;46314;52.392;9.758;2023-03-14T07:14:57;1.77;;;0.93;;
60464;SDS011;46314;52.392;9.758;2023-03-14T07:17:37;1.60;;;0.80;;
60464;SDS011;46314;52.392;9.758;2023-03-14T07:20:05;3.10;;;0.85;;
60464;SDS011;46314;52.392;9.758;2023-03-14T07:22:33;3.65;;;0.70;;
60464;SDS011;46314;52.392;9.758;2023-03-14T07:25:00;2.35;;;0.70;;
60464;SDS011;46314;52.392;9.758;2023-03-14T07:27:26;1.65;;;0.73;;
60464;SDS011;46314;52.392;9.758;2023-03-14T07:29:53;0.57;;;0.40;;
60464;SDS011;46314;52.392;9.758;2023-03-14T07:32:19;1.00;;;0.47;;
60464;SDS011;46314;52.392;9.758;2023-03-14T07:34:45;0.50;;;0.47;;
60464;SDS011;46314;52.392;9.758;2023-03-14T07:37:13;0.73;;;0.43;;
60464;SDS011;46314;52.392;9.758;2023-03-14T07:39:40;2.67;;;0.70;;
60464;SDS011;46314;52.392;9.758;2023-03-14T07:42:06;1.50;;;0.50;;
60464;SDS011;46314;52.392;9.758;2023-03-14T07:44:33;1.60;;;0.60;;
60464;SDS011;46314;52.392;9.758;2023-03-14T07:46:59;1.80;;;0.70;;
60464;SDS011;46314;52.392;9.758;2023-03-14T07:49:25;0.77;;;0.50;;
60464;SDS011;46314;52.392;9.758;2023-03-14T07:51:52;1.60;;;1.10;;
60464;SDS011;46314;52.392;9.758;2023-03-14T07:54:19;1.48;;;0.70;;
60464;SDS011;46314;52.392;9.758;2023-03-14T07:56:46;1.52;;;0.60;;
60464;SDS011;46314;52.392;9.758;2023-03-14T07:59:12;2.15;;;0.57;;
60464;SDS011;46314;52.392;9.758;2023-03-14T08:01:39;1.75;;;0.50;;
60464;SDS011;46314;52.392;9.758;2023-03-14T08:04:05;4.22;;;0.68;;
60464;SDS011;46314;52.392;9.758;2023-03-14T08:06:32;2.10;;;0.40;;
60464;SDS011;46314;52.392;9.758;2023-03-14T08:08:58;2.20;;;0.43;;
60464;SDS011;46314;52.392;9.758;2023-03-14T08:11:26;1.05;;;0.52;;
60464;SDS011;46314;52.392;9.758;2023-03-14T08:13:52;1.33;;;0.73;;
60464;SDS011;46314;52.392;9.758;2023-03-14T08:16:19;1.98;;;0.70;;
60464;SDS011;46314;52.392;9.758;2023-03-14T08:18:45;1.15;;;0.68;;
60464;SDS011;46314;52.392;9.758;2023-03-14T08:21:12;1.88;;;0.50;;
60464;SDS011;46314;52.392;9.758;2023-03-14T08:23:38;2.72;;;0.82;;
60464;SDS011;46314;52.392;9.758;2023-03-14T08:26:05;1.30;;;0.70;;
60464;SDS011;46314;52.392;9.758;2023-03-14T08:28:34;2.97;;;1.00;;
60464;SDS011;46314;52.392;9.758;2023-03-14T08:31:00;2.42;;;0.57;;
60464;SDS011;46314;52.392;9.758;2023-03-14T08:33:28;3.15;;;0.52;;
60464;SDS011;46314;52.392;9.758;2023-03-14T08:35:56;1.80;;;0.60;;
60464;SDS011;46314;52.392;9.758;2023-03-14T08:38:23;2.22;;;0.77;;
60464;SDS011;46314;52.392;9.758;2023-03-14T08:40:54;1.15;;;0.60;;
60464;SDS011;46314;52.392;9.758;2023-03-14T08:43:21;1.40;;;0.65;;
60464;SDS011;46314;52.392;9.758;2023-03-14T08:45:49;1.67;;;0.73;;
60464;SDS011;46314;52.392;9.758;2023-03-14T08:48:16;1.67;;;0.60;;
60464;SDS011;46314;52.392;9.758;2023-03-14T08:50:42;0.80;;;0.63;;
60464;SDS011;46314;52.392;9.758;2023-03-14T08:53:09;0.57;;;0.40;;
60464;SDS011;46314;52.392;9.758;2023-03-14T08:55:35;0.85;;;0.52;;
60464;SDS011;46314;52.392;9.758;2023-03-14T08:58:02;1.45;;;0.55;;
60464;SDS011;46314;52.392;9.758;2023-03-14T09:00:28;2.78;;;0.77;;
60464;SDS011;46314;52.392;9.758;2023-03-14T09:02:56;0.50;;;0.40;;
60464;SDS011;46314;52.392;9.758;2023-03-14T09:05:22;2.13;;;0.60;;
60464;SDS011;46314;52.392;9.758;2023-03-14T09:07:49;2.08;;;0.73;;
60464;SDS011;46314;52.392;9.758;2023-03-14T09:10:15;0.80;;;0.60;;
60464;SDS011;46314;52.392;9.758;2023-03-14T09:12:42;1.60;;;0.73;;
60464;SDS011;46314;52.392;9.758;2023-03-14T09:15:09;2.42;;;0.82;;
60464;SDS011;46314;52.392;9.758;2023-03-14T09:17:36;1.92;;;0.57;;
60464;SDS011;46314;52.392;9.758;2023-03-14T09:20:04;0.85;;;0.70;;
60464;SDS011;46314;52.392;9.758;2023-03-14T09:22:31;1.60;;;0.82;;
60464;SDS011;46314;52.392;9.758;2023-03-14T09:24:57;1.30;;;1.00;;
60464;SDS011;46314;52.392;9.758;2023-03-14T09:27:24;1.23;;;0.80;;
60464;SDS011;46314;52.392;9.758;2023-03-14T09:29:50;2.83;;;0.80;;
60464;SDS011;46314;52.392;9.758;2023-03-14T09:32:16;1.92;;;0.80;;
60464;SDS011;46314;52.392;9.758;2023-03-14T09:34:43;2.47;;;0.70;;
60464;SDS011;46314;52.392;9.758;2023-03-14T09:37:10;1.13;;;0.55;;
60464;SDS011;46314;52.392;9.758;2023-03-14T09:39:37;2.15;;;1.05;;
60464;SDS011;46314;52.392;9.758;2023-03-14T09:42:04;2.38;;;0.98;;
60464;SDS011;46314;52.392;9.758;2023-03-14T09:44:34;3.05;;;1.20;;
60464;SDS011;46314;52.392;9.758;2023-03-14T09:47:04;3.22;;;1.00;;
60464;SDS011;46314;52.392;9.758;2023-03-14T09:49:33;3.25;;;1.10;;
60464;SDS011;46314;52.392;9.758;2023-03-14T09:52:02;0.93;;;0.77;;
60464;SDS011;46314;52.392;9.758;2023-03-14T09:54:38;2.22;;;0.85;;
60464;SDS011;46314;52.392;9.758;2023-03-14T09:57:10;0.50;;;0.50;;
60464;SDS011;46314;52.392;9.758;2023-03-14T09:59:39;2.08;;;0.70;;
60464;SDS011;46314;52.392;9.758;2023-03-14T10:02:14;1.45;;;1.10;;
60464;SDS011;46314;52.392;9.758;2023-03-14T10:04:43;1.20;;;0.70;;
60464;SDS011;46314;52.392;9.758;2023-03-14T10:07:11;1.00;;;0.82;;
60464;SDS011;46314;52.392;9.758;2023-03-14T10:09:42;1.02;;;0.85;;
60464;SDS011;46314;52.392;9.758;2023-03-14T10:12:09;0.95;;;0.70;;
60464;SDS011;46314;52.392;9.758;2023-03-14T10:14:37;0.70;;;0.70;;
60464;SDS011;46314;52.392;9.758;2023-03-14T10:17:11;0.80;;;0.60;;
60464;SDS011;46314;52.392;9.758;2023-03-14T10:19:39;1.83;;;0.80;;
60464;SDS011;46314;52.392;9.758;2023-03-14T10:22:18;1.33;;;0.73;;
60464;SDS011;46314;52.392;9.758;2023-03-14T10:24:47;0.85;;;0.80;;
60464;SDS011;46314;52.392;9.758;2023-03-14T10:27:19;1.25;;;0.98;;
60464;SDS011;46314;52.392;9.758;2023-03-14T10:29:52;1.88;;;1.33;;
60464;SDS011;46314;52.392;9.758;2023-03-14T10:32:20;1.33;;;0.93;;
60464;SDS011;46314;52.392;9.758;2023-03-14T10:35:03;1.35;;;0.93;;
60464;SDS011;46314;52.392;9.758;2023-03-14T10:37:32;1.83;;;0.90;;
60464;SDS011;46314;52.392;9.758;2023-03-14T10:40:01;2.72;;;1.10;;
60464;SDS011;46314;52.392;9.758;2023-03-14T10:42:29;2.33;;;1.35;;
60464;SDS011;46314;52.392;9.758;2023-03-14T10:44:57;2.35;;;0.90;;
60464;SDS011;46314;52.392;9.758;2023-03-14T10:47:26;2.03;;;0.93;;
60464;SDS011;46314;52.392;9.758;2023-03-14T10:49:54;2.40;;;1.17;;
60464;SDS011;46314;52.392;9.758;2023-03-14T10:52:22;1.77;;;1.48;;
60464;SDS011;46314;52.392;9.758;2023-03-14T10:55:12;1.70;;;1.30;;
60464;SDS011;46314;52.392;9.758;2023-03-14T10:57:38;2.30;;;1.38;;
60464;SDS011;46314;52.392;9.758;2023-03-14T11:00:06;2.47;;;1.40;;
60464;SDS011;46314;52.392;9.758;2023-03-14T11:02:44;1.50;;;1.40;;
60464;SDS011;46314;52.392;9.758;2023-03-14T11:05:23;2.92;;;1.50;;
60464;SDS011;46314;52.392;9.758;2023-03-14T11:07:55;2.08;;;1.50;;
60464;SDS011;46314;52.392;9.758;2023-03-14T11:10:31;2.20;;;2.00;;
60464;SDS011;46314;52.392;9.758;2023-03-14T11:13:00;2.95;;;2.30;;
60464;SDS011;46314;52.392;9.758;2023-03-14T11:15:38;2.00;;;1.73;;
60464;SDS011;46314;52.392;9.758;2023-03-14T11:18:15;3.10;;;1.77;;
60464;SDS011;46314;52.392;9.758;2023-03-14T11:20:56;2.40;;;2.15;;
60464;SDS011;46314;52.392;9.758;2023-03-14T11:23:29;3.42;;;1.90;;
60464;SDS011;46314;52.392;9.758;2023-03-14T11:26:09;1.35;;;1.00;;
60464;SDS011;46314;52.392;9.758;2023-03-14T11:28:49;2.55;;;1.05;;
60464;SDS011;46314;52.392;9.758;2023-03-14T11:31:23;2.08;;;1.30;;
60464;SDS011;46314;52.392;9.758;2023-03-14T11:33:54;2.60;;;1.38;;
60464;SDS011;46314;52.392;9.758;2023-03-14T11:36:26;1.63;;;1.13;;
60464;SDS011;46314;52.392;9.758;2023-03-14T11:38:56;2.67;;;1.55;;
60464;SDS011;46314;52.392;9.758;2023-03-14T11:41:27;2.78;;;1.30;;
60464;SDS011;46314;52.392;9.758;2023-03-14T11:46:26;1.50;;;1.40;;
60464;SDS011;46314;52.392;9.758;2023-03-14T11:48:59;1.30;;;1.20;;
60464;SDS011;46314;52.392;9.758;2023-03-14T11:51:32;3.42;;;1.52;;
60464;SDS011;46314;52.392;9.758;2023-03-14T11:54:02;1.65;;;1.35;;
60464;SDS011;46314;52.392;9.758;2023-03-14T11:56:40;1.23;;;1.13;;
60464;SDS011;46314;52.392;9.758;2023-03-14T11:59:14;1.83;;;1.50;;
60464;SDS011;46314;52.392;9.758;2023-03-14T12:01:51;2.72;;;1.60;;
60464;SDS011;46314;52.392;9.758;2023-03-14T12:06:58;0.95;;;0.50;;
60464;SDS011;46314;52.392;9.758;2023-03-14T12:09:29;1.42;;;0.65;;
60464;SDS011;46314;52.392;9.758;2023-03-14T12:11:58;0.85;;;0.60;;
60464;SDS011;46314;52.392;9.758;2023-03-14T12:14:28;0.95;;;0.40;;
60464;SDS011;46314;52.392;9.758;2023-03-14T12:16:57;0.63;;;0.32;;
60464;SDS011;46314;52.392;9.758;2023-03-14T12:19:30;0.50;;;0.40;;
60464;SDS011;46314;52.392;9.758;2023-03-14T12:22:00;0.57;;;0.30;;
60464;SDS011;46314;52.392;9.758;2023-03-14T12:24:34;0.30;;;0.28;;
60464;SDS011;46314;52.392;9.758;2023-03-14T12:27:05;1.65;;;0.50;;
60464;SDS011;46314;52.392;9.758;2023-03-14T12:29:32;0.55;;;0.40;;
60464;SDS011;46314;52.392;9.758;2023-03-14T12:32:22;0.57;;;0.50;;
60464;SDS011;46314;52.392;9.758;2023-03-14T12:34:50;1.02;;;0.65;;
60464;SDS011;46314;52.392;9.758;2023-03-14T12:37:19;2.10;;;0.70;;
60464;SDS011;46314;52.392;9.758;2023-03-14T12:39:57;2.00;;;0.73;;
60464;SDS011;46314;52.392;9.758;2023-03-14T12:42:40;2.10;;;1.90;;
60464;SDS011;46314;52.392;9.758;2023-03-14T12:45:21;1.30;;;0.90;;
60464;SDS011;46314;52.392;9.758;2023-03-14T12:47:57;3.03;;;1.30;;
60464;SDS011;46314;52.392;9.758;2023-03-14T12:50:31;1.58;;;0.63;;
60464;SDS011;46314;52.392;9.758;2023-03-14T12:53:07;1.27;;;0.90;;
60464;SDS011;46314;52.392;9.758;2023-03-14T12:55:48;1.52;;;0.90;;
60464;SDS011;46314;52.392;9.758;2023-03-14T12:58:22;2.15;;;0.90;;
60464;SDS011;46314;52.392;9.758;2023-03-14T13:00:55;1.23;;;0.70;;
60464;SDS011;46314;52.392;9.758;2023-03-14T13:03:26;3.67;;;0.93;;
60464;SDS011;46314;52.392;9.758;2023-03-14T13:06:05;3.70;;;1.30;;
60464;SDS011;46314;52.392;9.758;2023-03-14T13:08:33;1.25;;;0.70;;
60464;SDS011;46314;52.392;9.758;2023-03-14T13:11:05;3.00;;;0.90;;
60464;SDS011;46314;52.392;9.758;2023-03-14T13:13:37;4.95;;;1.50;;
60464;SDS011;46314;52.392;9.758;2023-03-14T13:16:10;4.18;;;1.23;;
60464;SDS011;46314;52.392;9.758;2023-03-14T13:18:42;5.10;;;1.30;;
60464;SDS011;46314;52.392;9.758;2023-03-14T13:21:10;6.18;;;1.90;;
60464;SDS011;46314;52.392;9.758;2023-03-14T13:23:40;5.65;;;2.03;;
60464;SDS011;46314;52.392;9.758;2023-03-14T13:26:20;3.78;;;2.30;;
60464;SDS011;46314;52.392;9.758;2023-03-14T13:28:47;4.55;;;1.70;;
60464;SDS011;46314;52.392;9.758;2023-03-14T13:31:18;7.78;;;1.98;;
60464;SDS011;46314;52.392;9.758;2023-03-14T13:33:59;6.90;;;1.98;;
60464;SDS011;46314;52.392;9.758;2023-03-14T13:36:26;7.22;;;1.77;;
60464;SDS011;46314;52.392;9.758;2023-03-14T13:38:56;7.40;;;2.08;;
60464;SDS011;46314;52.392;9.758;2023-03-14T13:41:23;9.27;;;2.08;;
60464;SDS011;46314;52.392;9.758;2023-03-14T13:43:52;5.72;;;1.95;;
60464;SDS011;46314;52.392;9.758;2023-03-14T13:46:27;7.90;;;2.03;;
60464;SDS011;46314;52.392;9.758;2023-03-14T13:48:54;8.45;;;2.22;;
60464;SDS011;46314;52.392;9.758;2023-03-14T13:51:24;8.45;;;2.15;;
60464;SDS011;46314;52.392;9.758;2023-03-14T13:53:52;7.60;;;2.00;;
60464;SDS011;46314;52.392;9.758;2023-03-14T13:56:20;9.75;;;2.33;;
60464;SDS011;46314;52.392;9.758;2023-03-14T13:58:48;7.78;;;2.35;;
60464;SDS011;46314;52.392;9.758;2023-03-14T14:01:17;5.32;;;1.73;;
60464;SDS011;46314;52.392;9.758;2023-03-14T14:03:45;7.40;;;1.83;;
60464;SDS011;46314;52.392;9.758;2023-03-14T14:06:23;7.90;;;2.22;;
60464;SDS011;46314;52.392;9.758;2023-03-14T14:08:54;8.80;;;2.33;;
60464;SDS011;46314;52.392;9.758;2023-03-14T14:11:23;7.05;;;2.40;;
60464;SDS011;46314;52.392;9.758;2023-03-14T14:14:12;5.90;;;2.50;;
60464;SDS011;46314;52.392;9.758;2023-03-14T14:16:43;10.30;;;3.08;;
60464;SDS011;46314;52.392;9.758;2023-03-14T14:19:12;7.68;;;2.85;;
60464;SDS011;46314;52.392;9.758;2023-03-14T14:21:41;7.43;;;2.97;;
60464;SDS011;46314;52.392;9.758;2023-03-14T14:24:08;10.35;;;2.75;;
60464;SDS011;46314;52.392;9.758;2023-03-14T14:26:39;13.43;;;2.70;;
60464;SDS011;46314;52.392;9.758;2023-03-14T14:29:06;9.55;;;3.20;;
60464;SDS011;46314;52.392;9.758;2023-03-14T14:31:44;16.15;;;3.80;;
60464;SDS011;46314;52.392;9.758;2023-03-14T14:34:18;15.10;;;3.42;;
60464;SDS011;46314;52.392;9.758;2023-03-14T14:36:45;13.15;;;3.60;;
60464;SDS011;46314;52.392;9.758;2023-03-14T14:39:15;11.85;;;3.40;;
60464;SDS011;46314;52.392;9.758;2023-03-14T14:41:47;13.27;;;3.45;;
60464;SDS011;46314;52.392;9.758;2023-03-14T14:44:16;12.40;;;2.95;;
60464;SDS011;46314;52.392;9.758;2023-03-14T14:46:45;15.65;;;3.00;;
60464;SDS011;46314;52.392;9.758;2023-03-14T14:49:17;12.07;;;3.13;;
60464;SDS011;46314;52.392;9.758;2023-03-14T14:51:47;7.63;;;3.03;;
60464;SDS011;46314;52.392;9.758;2023-03-14T14:54:16;9.82;;;2.92;;
60464;SDS011;46314;52.392;9.758;2023-03-14T14:56:48;9.10;;;2.72;;
60464;SDS011;46314;52.392;9.758;2023-03-14T14:59:18;9.02;;;2.60;;
60464;SDS011;46314;52.392;9.758;2023-03-14T15:01:48;9.35;;;2.10;;
60464;SDS011;46314;52.392;9.758;2023-03-14T15:04:15;10.10;;;2.50;;